Time;durP1;ratioP1;P1;durP2;ratioP2;P2;SDS_P1;SDS_P2;PMS_P1;PMS_P2;Temp;Humidity;BMP_temperature;BMP_pressure;BME280_temperature;BME280_humidity;BME280_pressure;Samples;Min_cycle;Max_cycle;Signal;HPM_P1;HPM_P2
2023/10/03 04:22:32;;;;;;;17.25;8.73;;;;;;;12.50;100.00;100131.13;5089393;28;20118;-66
2023/10/03 04:24:58;;;;;;;16.10;8.88;;;;;;;12.54;100.00;100137.78;5089217;28;20067;-68
2023/10/03 04:27:25;;;;;;;16.35;9.60;;;;;;;12.57;100.00;100136.56;5089325;28;20055;-69
2023/10/03 04:29:51;;;;;;;16.35;8.55;;;;;;;12.53;100.00;100122.75;5089404;28;20498;-67
2023/10/03 04:32:17;;;;;;;16.52;9.23;;;;;;;12.54;100.00;100129.75;5089331;28;20070;-67
2023/10/03 04:34:42;;;;;;;19.98;9.68;;;;;;;12.50;100.00;100125.78;5089216;28;20108;-67
2023/10/03 04:37:08;;;;;;;16.60;8.85;;;;;;;12.55;100.00;100128.72;5089209;28;20037;-68
2023/10/03 04:39:35;;;;;;;18.85;9.75;;;;;;;12.60;100.00;100134.34;5089215;28;20102;-68
2023/10/03 04:42:00;;;;;;;19.30;9.73;;;;;;;12.60;100.00;100125.50;5087903;28;20067;-66
2023/10/03 04:44:26;;;;;;;15.70;8.38;;;;;;;12.61;100.00;100136.00;5088975;28;20062;-67
2023/10/03 04:46:51;;;;;;;16.63;9.88;;;;;;;12.59;100.00;100127.34;5089011;28;20044;-66
2023/10/03 04:49:16;;;;;;;17.08;8.77;;;;;;;12.60;100.00;100120.97;5089028;28;20089;-67
2023/10/03 04:51:45;;;;;;;15.80;8.82;;;;;;;12.57;100.00;100129.38;5088964;28;20028;-66
2023/10/03 04:54:11;;;;;;;14.77;7.88;;;;;;;12.60;100.00;100125.50;5088961;28;20380;-67
2023/10/03 04:56:36;;;;;;;15.88;8.02;;;;;;;12.59;100.00;100126.53;5088782;28;20043;-68
2023/10/03 04:59:03;;;;;;;15.20;8.52;;;;;;;12.58;100.00;100131.00;5088833;28;20076;-68
2023/10/03 05:01:28;;;;;;;17.40;9.23;;;;;;;12.56;100.00;100126.88;5088691;28;20494;-68
2023/10/03 05:03:54;;;;;;;17.52;8.95;;;;;;;12.57;100.00;100133.88;5088729;28;20044;-68
2023/10/03 05:06:19;;;;;;;16.52;8.05;;;;;;;12.50;100.00;100131.13;5088668;28;20115;-67
2023/10/03 05:08:46;;;;;;;17.92;8.77;;;;;;;12.58;100.00;100132.84;5088686;28;20040;-67
2023/10/03 05:11:13;;;;;;;17.60;9.43;;;;;;;12.52;100.00;100138.94;5088602;28;20040;-69
2023/10/03 05:13:43;;;;;;;14.85;8.45;;;;;;;12.49;100.00;100140.16;5088553;28;20064;-68
2023/10/03 05:16:09;;;;;;;17.13;9.05;;;;;;;12.50;100.00;100133.81;5088381;28;20040;-68
2023/10/03 05:18:34;;;;;;;15.40;9.20;;;;;;;12.53;100.00;100132.63;5088540;28;20502;-68
2023/10/03 05:21:00;;;;;;;15.23;8.32;;;;;;;12.54;100.00;100135.09;5088321;28;20547;-67
2023/10/03 05:23:25;;;;;;;16.85;8.93;;;;;;;12.59;100.00;100140.72;5088292;28;20206;-68
2023/10/03 05:25:51;;;;;;;16.40;8.10;;;;;;;12.64;100.00;100132.94;5088275;28;20115;-68
2023/10/03 05:28:16;;;;;;;15.93;8.68;;;;;;;12.66;100.00;100136.25;5088261;28;20489;-69
2023/10/03 05:30:41;;;;;;;18.08;9.93;;;;;;;12.74;100.00;100138.81;5088191;28;20041;-67
2023/10/03 05:33:07;;;;;;;19.23;8.75;;;;;;;12.79;100.00;100140.09;5079008;28;20475;-68
2023/10/03 05:35:33;;;;;;;16.05;8.35;;;;;;;12.84;100.00;100140.31;5074644;28;20043;-68
2023/10/03 05:37:59;;;;;;;15.65;7.55;;;;;;;12.88;100.00;100144.28;5074535;28;20082;-68
2023/10/03 05:40:24;;;;;;;13.23;7.93;;;;;;;12.87;100.00;100140.78;5074504;28;20057;-67
2023/10/03 05:42:50;;;;;;;14.85;8.57;;;;;;;12.94;100.00;100135.50;5074416;28;20115;-67
2023/10/03 05:45:17;;;;;;;17.70;8.40;;;;;;;12.98;100.00;100142.13;5074260;28;20033;-67
2023/10/03 05:47:46;;;;;;;15.82;9.07;;;;;;;13.03;100.00;100145.03;5081037;28;20212;-67
2023/10/03 05:50:14;;;;;;;17.25;8.57;;;;;;;13.08;100.00;100145.31;5074414;28;20032;-67
2023/10/03 05:52:41;;;;;;;19.30;9.30;;;;;;;13.11;100.00;100147.59;5074414;28;20032;-68
2023/10/03 05:55:07;;;;;;;15.52;8.27;;;;;;;13.13;100.00;100134.03;5074116;28;20055;-68
2023/10/03 05:57:33;;;;;;;11.27;7.78;;;;;;;13.20;100.00;100146.47;5074159;28;20097;-67
2023/10/03 05:59:59;;;;;;;16.95;8.57;;;;;;;13.21;100.00;100140.09;5074155;28;20024;-66
2023/10/03 06:02:25;;;;;;;16.20;8.90;;;;;;;13.24;100.00;100146.94;5074260;28;20036;-68
2023/10/03 06:04:51;;;;;;;13.75;8.35;;;;;;;13.29;100.00;100145.31;5074084;28;20487;-67
2023/10/03 06:07:17;;;;;;;14.65;8.15;;;;;;;13.34;100.00;100141.22;5073856;28;20054;-68
2023/10/03 06:09:42;;;;;;;14.90;8.48;;;;;;;13.39;100.00;100142.31;5072973;28;20584;-68
2023/10/03 06:12:09;;;;;;;16.70;9.38;;;;;;;13.41;100.00;100136.75;5073854;28;20436;-62
2023/10/03 06:14:35;;;;;;;18.10;9.77;;;;;;;13.48;100.00;100142.97;5073491;28;20033;-63
2023/10/03 06:17:01;;;;;;;15.65;8.95;;;;;;;13.52;100.00;100138.91;5073633;28;20441;-61
2023/10/03 06:19:26;;;;;;;13.07;7.45;;;;;;;13.61;100.00;100148.44;5073601;28;20066;-62
2023/10/03 06:21:52;;;;;;;13.40;7.88;;;;;;;13.68;100.00;100138.59;5073491;28;20033;-62
2023/10/03 06:24:17;;;;;;;15.23;7.65;;;;;;;13.74;100.00;100142.34;5073205;28;20063;-63
2023/10/03 06:26:44;;;;;;;13.55;7.65;;;;;;;13.77;100.00;100145.47;5073198;28;20089;-61
2023/10/03 06:29:10;;;;;;;13.65;7.28;;;;;;;13.83;100.00;100152.72;5072338;28;20070;-61
2023/10/03 06:31:35;;;;;;;13.30;7.80;;;;;;;13.89;100.00;100148.44;5073234;28;20033;-60
2023/10/03 06:34:02;;;;;;;15.35;7.70;;;;;;;13.93;100.00;100154.19;5073119;28;20107;-62
2023/10/03 06:36:28;;;;;;;12.70;7.10;;;;;;;13.99;100.00;100164.13;5073202;28;20048;-60
2023/10/03 06:38:53;;;;;;;11.70;6.93;;;;;;;14.01;100.00;100162.88;5073284;28;20228;-62
2023/10/03 06:41:19;;;;;;;11.25;7.47;;;;;;;14.04;100.00;100167.03;5073093;28;20040;-61
2023/10/03 06:43:45;;;;;;;15.43;7.30;;;;;;;14.08;100.00;100168.28;5072197;28;20036;-62
2023/10/03 06:46:10;;;;;;;11.52;6.82;;;;;;;14.10;100.00;100163.56;5072729;28;20036;-61
2023/10/03 06:48:36;;;;;;;15.10;7.55;;;;;;;14.13;100.00;100171.19;5072945;28;20035;-62
2023/10/03 06:51:04;;;;;;;11.88;6.88;;;;;;;14.15;100.00;100166.50;5072935;28;20521;-62
2023/10/03 06:53:31;;;;;;;15.30;8.10;;;;;;;14.18;100.00;100165.25;5072521;28;20047;-62
2023/10/03 06:55:57;;;;;;;11.40;6.95;;;;;;;14.20;100.00;100174.75;5072852;28;20040;-61
2023/10/03 06:58:22;;;;;;;12.05;7.13;;;;;;;14.22;100.00;100172.72;5072736;28;20035;-62
2023/10/03 07:00:52;;;;;;;14.95;8.05;;;;;;;14.25;100.00;100174.97;5073135;28;20074;-63
2023/10/03 07:03:19;;;;;;;12.55;7.10;;;;;;;14.28;100.00;100179.97;5072472;28;20468;-62
2023/10/03 07:05:44;;;;;;;12.23;6.55;;;;;;;14.29;100.00;100178.91;5072699;28;20035;-63
2023/10/03 07:08:12;;;;;;;13.65;7.38;;;;;;;14.35;100.00;100177.31;5072648;28;20032;-62
2023/10/03 07:10:40;;;;;;;11.82;6.13;;;;;;;14.40;100.00;100177.50;5072587;28;20040;-66
2023/10/03 07:13:05;;;;;;;;;;;;;;;14.48;100.00;100171.22;5072605;28;20376;-64
2023/10/03 07:15:30;;;;;;;11.82;5.78;;;;;;;14.63;100.00;100182.59;5071142;28;19927;-46
2023/10/03 07:17:56;;;;;;;8.90;5.60;;;;;;;14.82;100.00;100179.16;5072592;28;20068;-49
2023/10/03 07:20:22;;;;;;;7.85;5.15;;;;;;;14.99;100.00;100184.94;5064048;28;20036;-47
2023/10/03 07:22:47;;;;;;;8.38;5.03;;;;;;;15.17;100.00;100184.38;5062837;28;20079;-45
2023/10/03 07:25:13;;;;;;;9.38;4.97;;;;;;;15.35;100.00;100187.28;5062891;28;20020;-46
2023/10/03 07:27:41;;;;;;;8.40;4.82;;;;;;;15.57;100.00;100187.06;5062635;28;20483;-47
2023/10/03 07:30:07;;;;;;;9.18;5.10;;;;;;;15.68;100.00;100189.16;5062250;28;20033;-48
2023/10/03 07:32:32;;;;;;;8.68;5.38;;;;;;;15.84;100.00;100187.88;5062327;28;20041;-42
2023/10/03 07:35:02;;;;;;;10.05;4.80;;;;;;;15.92;100.00;100185.81;5062598;28;20040;-42
2023/10/03 07:37:28;;;;;;;6.72;4.65;;;;;;;16.07;100.00;100190.97;5065009;28;20032;-43
2023/10/03 07:39:54;;;;;;;7.38;4.45;;;;;;;16.19;100.00;100191.13;5062359;28;20082;-43
2023/10/03 07:42:22;;;;;;;5.95;4.32;;;;;;;16.27;100.00;100199.78;5062457;28;20045;-42
2023/10/03 07:44:52;;;;;;;5.70;4.20;;;;;;;16.36;100.00;100192.31;5060593;28;20039;-45
2023/10/03 07:47:18;;;;;;;7.13;4.45;;;;;;;16.45;100.00;100195.59;5061502;28;20491;-44
2023/10/03 07:49:44;;;;;;;9.13;4.28;;;;;;;16.51;100.00;100200.97;5061367;28;20537;-43
2023/10/03 07:52:09;;;;;;;7.28;4.45;;;;;;;16.62;100.00;100199.44;5061473;28;20032;-43
2023/10/03 07:54:37;;;;;;;8.10;4.43;;;;;;;16.70;100.00;100193.88;5061852;28;20043;-44
2023/10/03 07:57:05;;;;;;;6.80;4.50;;;;;;;16.74;100.00;100192.38;5062826;28;20041;-43
2023/10/03 07:59:31;;;;;;;7.80;4.75;;;;;;;16.81;100.00;100197.72;5060675;28;20037;-43
2023/10/03 08:01:57;;;;;;;9.43;5.20;;;;;;;16.84;100.00;100201.88;5061988;28;20071;-42
2023/10/03 08:04:23;;;;;;;8.10;4.97;;;;;;;16.89;100.00;100208.25;5060691;28;20507;-52
2023/10/03 08:06:49;;;;;;;9.00;6.18;;;;;;;16.95;100.00;100214.63;5072115;28;20020;-46
2023/10/03 08:09:15;;;;;;;8.10;4.63;;;;;;;17.01;99.59;100211.91;5071733;28;20075;-54
2023/10/03 08:11:46;;;;;;;7.10;4.35;;;;;;;17.03;98.88;100223.28;5066079;28;20155;-50
2023/10/03 08:14:13;;;;;;;9.23;4.20;;;;;;;17.14;98.47;100226.31;5061091;28;20487;-47
2023/10/03 08:16:43;;;;;;;7.05;4.68;;;;;;;17.16;98.59;100217.00;5060449;28;20021;-53
2023/10/03 08:19:26;;;;;;;6.03;4.18;;;;;;;17.22;97.62;100216.13;5061485;28;20460;-45
2023/10/03 08:21:53;;;;;;;6.30;4.22;;;;;;;17.32;96.97;100218.34;5063031;28;20116;-51
2023/10/03 08:24:28;;;;;;;7.47;4.50;;;;;;;17.44;95.07;100221.97;5059421;28;20500;-45
2023/10/03 08:26:58;;;;;;;8.52;4.28;;;;;;;17.66;92.56;100224.28;5060684;28;20043;-59
2023/10/03 08:29:24;;;;;;;7.93;4.15;;;;;;;17.89;90.27;100211.06;5058862;28;20060;-43
2023/10/03 08:31:57;;;;;;;7.25;4.00;;;;;;;18.16;88.12;100220.53;5071448;28;20078;-46
2023/10/03 08:34:24;;;;;;;6.30;3.75;;;;;;;18.32;87.41;100216.44;5071300;28;20120;-45
2023/10/03 08:36:54;;;;;;;6.32;3.65;;;;;;;18.55;85.22;100223.00;5071479;28;20072;-50
2023/10/03 08:39:22;;;;;;;4.60;3.40;;;;;;;18.77;83.50;100217.97;5071450;28;20040;-50
2023/10/03 08:42:11;;;;;;;5.95;3.75;;;;;;;18.94;82.47;100214.44;5071433;28;20018;-51
2023/10/03 08:44:49;;;;;;;6.50;3.35;;;;;;;19.31;80.14;100221.59;5068394;28;20084;-47
2023/10/03 08:47:18;;;;;;;5.50;3.92;;;;;;;19.66;79.37;100219.81;5071357;28;20072;-47
2023/10/03 08:49:48;;;;;;;5.35;3.00;;;;;;;20.17;74.33;100214.75;5071460;28;20020;-49
2023/10/03 08:52:13;;;;;;;5.05;3.55;;;;;;;20.43;72.93;100218.84;5071131;28;20576;-50
2023/10/03 08:54:41;;;;;;;5.22;3.20;;;;;;;20.72;71.49;100223.25;5070926;28;20036;-47
2023/10/03 08:57:10;;;;;;;5.93;2.88;;;;;;;21.11;68.97;100223.44;5071282;28;20544;-46
2023/10/03 08:59:40;;;;;;;7.05;3.30;;;;;;;21.43;66.53;100220.25;5071169;28;20032;-47
2023/10/03 09:02:11;;;;;;;4.13;3.00;;;;;;;21.75;64.01;100217.78;5071273;28;20056;-46
2023/10/03 09:04:40;;;;;;;6.20;2.92;;;;;;;22.18;61.88;100212.50;5062597;28;20033;-46
2023/10/03 09:07:11;;;;;;;3.83;3.08;;;;;;;22.54;59.13;100218.38;5071220;28;20119;-48
2023/10/03 09:09:41;;;;;;;4.68;3.15;;;;;;;22.97;58.20;100231.16;5075000;28;20055;-50
2023/10/03 09:12:08;;;;;;;7.28;2.97;;;;;;;23.32;55.95;100227.13;5075183;28;20503;-49
2023/10/03 09:14:36;;;;;;;4.80;2.90;;;;;;;23.30;56.14;100221.16;5074549;28;20028;-50
2023/10/03 09:17:05;;;;;;;5.88;3.58;;;;;;;23.47;54.55;100230.00;5068042;28;20111;-50
2023/10/03 09:19:45;;;;;;;4.82;2.95;;;;;;;23.48;54.45;100233.53;5074672;28;20056;-49
2023/10/03 09:22:15;;;;;;;4.88;2.97;;;;;;;23.69;53.13;100234.56;5071242;28;20392;-49
2023/10/03 09:24:44;;;;;;;5.35;3.65;;;;;;;23.81;52.72;100232.47;5066650;28;20449;-47
2023/10/03 09:27:17;;;;;;;6.70;3.30;;;;;;;23.88;53.18;100227.63;5074707;28;20031;-47
2023/10/03 09:29:43;;;;;;;4.75;3.00;;;;;;;23.89;53.43;100234.72;5074726;28;20029;-49
2023/10/03 09:32:20;;;;;;;4.45;3.15;;;;;;;24.14;52.28;100222.34;5074405;28;20544;-48
2023/10/03 09:34:48;;;;;;;;;;;;;;;24.27;52.24;100225.44;5074825;28;20033;-49
2023/10/03 09:37:13;;;;;;;3.97;2.83;;;;;;;24.46;51.79;100219.56;5074540;28;19916;-47
2023/10/03 09:39:40;;;;;;;6.15;3.10;;;;;;;24.57;51.74;100210.34;5074458;28;20024;-49
2023/10/03 09:42:16;;;;;;;5.00;3.53;;;;;;;24.86;50.32;100197.91;5074438;28;20032;-49
2023/10/03 09:44:51;;;;;;;5.13;3.00;;;;;;;25.04;51.86;100204.81;5074259;28;20125;-47
2023/10/03 09:47:18;;;;;;;5.28;3.42;;;;;;;25.46;51.07;100195.56;5074221;28;20562;-47
2023/10/03 09:49:47;;;;;;;9.27;3.40;;;;;;;26.00;48.85;100200.44;5074400;28;20047;-48
2023/10/03 09:52:23;;;;;;;5.07;3.15;;;;;;;26.44;46.89;100211.53;5074041;28;20032;-50
2023/10/03 09:54:59;;;;;;;4.78;3.10;;;;;;;26.46;48.22;100217.50;5073880;28;20044;-47
2023/10/03 09:57:28;;;;;;;7.37;3.20;;;;;;;26.41;46.98;100208.56;5074098;28;20048;-52
2023/10/03 09:59:55;;;;;;;4.90;3.65;;;;;;;26.35;47.81;100221.38;5074176;28;20270;-53
2023/10/03 10:02:31;;;;;;;7.65;4.18;;;;;;;25.95;48.84;100238.63;5074085;28;20601;-48
2023/10/03 10:05:01;;;;;;;7.67;3.90;;;;;;;25.73;48.69;100229.94;5072337;28;20063;-48
2023/10/03 10:07:51;;;;;;;15.77;9.43;;;;;;;25.54;49.73;100222.28;5073782;28;20036;-49
2023/10/03 10:10:19;;;;;;;22.40;12.93;;;;;;;25.36;50.64;100233.72;5073714;28;20039;-49
2023/10/03 10:13:13;;;;;;;6.68;3.95;;;;;;;25.20;50.90;100234.78;5073827;28;20380;-51
2023/10/03 10:16:00;;;;;;;5.60;3.70;;;;;;;25.37;50.35;100232.66;5073679;28;20032;-47
2023/10/03 10:18:45;;;;;;;5.05;3.15;;;;;;;25.36;50.55;100239.16;5073601;28;20040;-49
2023/10/03 10:21:20;;;;;;;5.43;3.35;;;;;;;25.34;50.85;100235.91;5073479;28;20020;-50
2023/10/03 10:24:20;;;;;;;6.68;4.35;;;;;;;25.20;51.81;100226.63;5073273;28;20494;-50
2023/10/03 10:26:49;;;;;;;9.60;4.20;;;;;;;25.07;52.89;100228.78;5073545;28;20028;-49
2023/10/03 10:29:24;;;;;;;7.68;4.18;;;;;;;25.20;51.00;100232.06;5073516;28;20134;-50
2023/10/03 10:31:59;;;;;;;5.68;3.65;;;;;;;25.14;51.91;100234.78;5073454;28;20107;-50
2023/10/03 10:34:27;;;;;;;7.15;3.60;;;;;;;24.97;53.09;100225.97;5073188;28;20044;-48
2023/10/03 10:37:04;;;;;;;6.13;3.55;;;;;;;24.88;52.45;100247.50;5073241;28;20028;-49
2023/10/03 10:40:09;;;;;;;4.70;3.33;;;;;;;24.72;53.28;100240.38;5073277;28;20040;-48
2023/10/03 10:42:55;;;;;;;5.53;3.83;;;;;;;24.70;53.62;100250.69;5062221;28;20036;-48
2023/10/03 10:45:21;;;;;;;6.65;3.90;;;;;;;24.66;54.50;100237.88;5063898;28;20040;-47
2023/10/03 10:47:54;;;;;;;6.40;3.45;;;;;;;24.65;54.92;100247.97;5072830;28;20024;-48
2023/10/03 10:50:25;;;;;;;5.95;3.65;;;;;;;24.54;55.97;100246.28;5073213;28;20498;-47
2023/10/03 10:52:56;;;;;;;5.32;4.00;;;;;;;24.51;56.38;100255.78;5072707;28;20033;-48
2023/10/03 10:55:23;;;;;;;5.18;3.60;;;;;;;24.42;57.18;100248.38;5072859;28;20040;-47
2023/10/03 10:58:12;;;;;;;6.60;3.92;;;;;;;24.32;57.97;100244.50;5072990;28;20028;-48
2023/10/03 11:00:37;;;;;;;7.18;4.15;;;;;;;24.29;57.71;100238.75;5069504;28;20128;-52
2023/10/03 11:03:04;;;;;;;7.57;3.78;;;;;;;24.28;58.04;100242.56;5067595;28;20093;-47
2023/10/03 11:05:46;;;;;;;6.70;3.65;;;;;;;24.14;58.86;100252.28;5072743;28;20126;-48
2023/10/03 11:08:12;;;;;;;8.15;3.53;;;;;;;24.06;58.05;100250.84;5072747;28;20032;-47
2023/10/03 11:10:54;;;;;;;6.47;3.75;;;;;;;24.00;59.03;100246.50;5072623;28;20081;-61
2023/10/03 11:13:23;;;;;;;6.68;3.75;;;;;;;23.87;60.58;100249.66;5072431;28;20036;-63
2023/10/03 11:15:50;;;;;;;6.93;3.83;;;;;;;23.76;60.94;100257.72;5072743;28;20040;-61
2023/10/03 11:18:31;;;;;;;6.63;4.27;;;;;;;23.74;61.60;100264.50;5072686;28;20502;-63
2023/10/03 11:20:58;;;;;;;6.18;3.97;;;;;;;23.57;61.69;100256.44;5072287;28;20059;-63
2023/10/03 11:23:24;;;;;;;8.27;3.80;;;;;;;23.61;61.73;100273.06;5070892;28;20040;-63
2023/10/03 11:26:00;;;;;;;6.20;3.80;;;;;;;23.51;62.10;100277.31;5072628;28;20093;-63
2023/10/03 11:28:28;;;;;;;7.72;3.53;;;;;;;23.45;62.33;100267.47;5072576;28;20445;-63
2023/10/03 11:31:05;;;;;;;6.05;3.75;;;;;;;23.42;61.30;100268.00;5071949;28;20040;-63
2023/10/03 11:33:44;;;;;;;5.10;3.20;;;;;;;23.42;62.18;100278.88;5072166;28;20523;-63
2023/10/03 11:36:11;;;;;;;5.55;3.40;;;;;;;23.34;61.95;100279.31;5072384;28;20036;-63
2023/10/03 11:38:47;;;;;;;4.65;3.08;;;;;;;23.36;62.93;100285.34;5072371;28;20050;-63
2023/10/03 11:41:13;;;;;;;4.65;3.00;;;;;;;23.26;62.66;100268.91;5072417;28;20123;-63
2023/10/03 11:43:49;;;;;;;9.70;3.70;;;;;;;23.32;62.83;100267.06;5072389;28;20083;-63
2023/10/03 11:46:15;;;;;;;6.82;3.38;;;;;;;23.34;63.39;100281.22;5072348;28;20079;-63
2023/10/03 11:48:41;;;;;;;7.60;3.05;;;;;;;23.39;62.71;100284.00;5072240;28;20051;-62
2023/10/03 11:51:07;;;;;;;8.02;3.10;;;;;;;23.49;62.67;100284.09;5072087;28;20024;-63
2023/10/03 11:53:33;;;;;;;6.68;3.05;;;;;;;23.49;61.85;100284.94;5071816;28;20040;-63
2023/10/03 11:55:58;;;;;;;6.55;3.17;;;;;;;23.56;62.22;100285.53;5072011;28;20119;-63
2023/10/03 11:58:23;;;;;;;6.32;3.22;;;;;;;23.53;63.25;100285.22;5072226;28;20036;-64
2023/10/03 12:00:51;;;;;;;4.55;2.80;;;;;;;23.51;61.67;100280.03;5072284;28;20070;-63
2023/10/03 12:03:17;;;;;;;5.40;3.15;;;;;;;23.61;61.09;100292.09;5071838;28;20091;-64
2023/10/03 12:05:45;;;;;;;6.53;2.80;;;;;;;23.69;61.46;100284.31;5071977;28;20499;-64
2023/10/03 12:08:11;;;;;;;6.75;3.22;;;;;;;23.72;61.13;100296.56;5071995;28;20116;-63
2023/10/03 12:10:38;;;;;;;3.90;2.55;;;;;;;23.84;59.99;100294.50;5071745;28;20119;-64
2023/10/03 12:13:04;;;;;;;7.13;3.30;;;;;;;23.86;59.31;100299.66;5071723;28;20264;-64
2023/10/03 12:15:30;;;;;;;6.63;2.88;;;;;;;23.85;57.67;100298.84;5071979;28;20028;-64
2023/10/03 12:17:56;;;;;;;7.70;3.20;;;;;;;23.81;58.01;100295.03;5071801;28;20032;-64
2023/10/03 12:20:22;;;;;;;7.07;2.83;;;;;;;23.83;57.86;100295.59;5071778;28;20062;-64
2023/10/03 12:22:52;;;;;;;4.03;2.60;;;;;;;23.72;57.74;100300.09;5071819;28;20172;-63
2023/10/03 12:25:21;;;;;;;6.95;2.55;;;;;;;23.63;56.40;100281.81;5071777;28;20479;-64
2023/10/03 12:27:47;;;;;;;4.53;2.65;;;;;;;23.60;57.36;100293.16;5071840;28;20032;-64
2023/10/03 12:30:15;;;;;;;6.22;3.10;;;;;;;23.61;56.25;100286.66;5071942;28;20479;-64
2023/10/03 12:32:43;;;;;;;5.78;3.05;;;;;;;23.61;56.62;100286.66;5071694;28;20150;-64
2023/10/03 12:35:09;;;;;;;5.30;3.00;;;;;;;23.63;57.01;100276.38;5071496;28;20033;-63
2023/10/03 12:37:36;;;;;;;7.65;3.38;;;;;;;23.64;56.94;100281.56;5065566;28;20447;-64
2023/10/03 12:40:08;;;;;;;6.97;3.40;;;;;;;23.67;56.45;100281.06;5062899;28;20020;-64
2023/10/03 12:42:35;;;;;;;4.63;3.10;;;;;;;23.69;55.60;100284.31;5055195;28;20068;-63
2023/10/03 12:45:01;;;;;;;4.65;3.33;;;;;;;23.78;56.72;100290.09;5055545;28;20045;-63
2023/10/03 12:47:35;;;;;;;5.45;2.97;;;;;;;24.25;54.24;100282.00;5055553;28;20103;-63
2023/10/03 12:50:02;;;;;;;6.30;3.05;;;;;;;24.50;53.70;100284.09;5055612;28;20037;-64
2023/10/03 12:52:28;;;;;;;9.23;3.25;;;;;;;24.58;52.42;100270.00;5061166;28;20025;-64
2023/10/03 12:54:55;;;;;;;5.05;2.95;;;;;;;24.57;53.69;100278.41;5064287;28;20469;-64
2023/10/03 12:57:22;;;;;;;4.13;3.00;;;;;;;24.32;53.84;100293.50;5050600;28;20047;-63
2023/10/03 12:59:49;;;;;;;5.97;3.33;;;;;;;24.37;53.61;100281.84;5058104;28;20407;-64
2023/10/03 13:02:17;;;;;;;6.22;3.22;;;;;;;24.45;53.95;100280.50;5061988;28;20058;-64
2023/10/03 13:04:42;;;;;;;;;;;;;;;24.61;53.50;100285.78;5065921;28;20522;-64
2023/10/03 13:07:09;;;;;;;5.90;3.05;;;;;;;24.60;53.12;100284.16;5072554;28;19912;-64
2023/10/03 13:09:39;;;;;;;4.68;3.20;;;;;;;24.55;53.22;100291.47;5075359;28;20151;-63
2023/10/03 13:12:06;;;;;;;14.05;3.83;;;;;;;24.38;53.16;100285.38;5074986;28;20119;-63
2023/10/03 13:14:32;;;;;;;7.25;3.40;;;;;;;24.50;53.59;100280.53;5074970;28;20095;-63
2023/10/03 13:16:59;;;;;;;6.50;3.88;;;;;;;24.52;52.89;100279.22;5074951;28;20142;-63
2023/10/03 13:19:27;;;;;;;4.90;3.47;;;;;;;24.43;53.92;100288.94;5075136;28;20082;-62
2023/10/03 13:21:53;;;;;;;6.65;3.45;;;;;;;24.39;54.02;100287.84;5074890;28;20035;-63
2023/10/03 13:24:20;;;;;;;5.88;3.78;;;;;;;24.50;53.40;100275.91;5074662;28;20127;-63
2023/10/03 13:26:46;;;;;;;6.93;3.72;;;;;;;24.40;53.74;100280.50;5074552;28;20064;-60
2023/10/03 13:29:11;;;;;;;6.90;3.55;;;;;;;24.33;54.24;100280.72;5064760;28;20060;-62
2023/10/03 13:31:37;;;;;;;7.53;4.22;;;;;;;24.21;55.81;100272.75;5063906;28;20499;-62
2023/10/03 13:34:03;;;;;;;12.40;3.75;;;;;;;24.20;55.38;100262.94;5062749;28;20390;-61
2023/10/03 13:36:30;;;;;;;7.22;3.53;;;;;;;24.16;56.18;100272.69;5064056;28;20045;-63
2023/10/03 13:38:57;;;;;;;4.85;3.45;;;;;;;24.06;56.27;100273.47;5063617;28;20452;-63
2023/10/03 13:41:23;;;;;;;7.28;3.67;;;;;;;24.00;56.27;100274.50;5065643;28;20041;-63
2023/10/03 13:43:49;;;;;;;7.10;3.53;;;;;;;23.86;56.27;100267.84;5064084;28;20049;-63
2023/10/03 13:46:16;;;;;;;8.90;4.18;;;;;;;23.80;56.92;100275.19;5062510;28;20043;-63
2023/10/03 13:48:43;;;;;;;7.43;3.65;;;;;;;23.72;56.60;100282.97;5063368;28;20394;-63
2023/10/03 13:51:08;;;;;;;7.70;3.67;;;;;;;23.63;57.10;100273.66;5045375;28;20045;-63
2023/10/03 13:53:34;;;;;;;6.03;3.58;;;;;;;23.56;57.86;100280.09;5062581;28;20043;-63
2023/10/03 13:56:01;;;;;;;6.47;3.83;;;;;;;23.50;58.65;100285.75;5064993;28;20040;-63
2023/10/03 13:58:29;;;;;;;10.80;3.75;;;;;;;23.44;58.82;100279.44;5063276;28;20032;-62
2023/10/03 14:00:55;;;;;;;10.63;4.20;;;;;;;23.37;59.41;100284.25;5054287;28;20032;-62
2023/10/03 14:03:22;;;;;;;6.00;4.15;;;;;;;23.39;59.29;100292.16;5064566;28;20048;-62
2023/10/03 14:05:47;;;;;;;8.48;3.90;;;;;;;23.36;60.04;100298.94;5062205;28;20047;-63
2023/10/03 14:08:13;;;;;;;5.68;3.50;;;;;;;23.31;60.17;100303.50;5063851;28;20033;-63
2023/10/03 14:10:43;;;;;;;7.30;3.97;;;;;;;23.35;59.96;100297.28;5047533;28;20085;-62
2023/10/03 14:13:10;;;;;;;6.90;3.22;;;;;;;23.27;60.90;100295.84;5062496;28;20488;-65
2023/10/03 14:15:43;;;;;;;8.85;5.07;;;;;;;23.32;61.31;100299.69;5063976;28;20048;-64
2023/10/03 14:18:10;;;;;;;5.75;3.40;;;;;;;23.27;61.71;100303.16;5063533;28;20433;-64
2023/10/03 14:20:38;;;;;;;7.38;3.50;;;;;;;23.26;61.62;100298.81;5062967;28;20029;-64
2023/10/03 14:23:04;;;;;;;7.25;3.47;;;;;;;23.31;62.06;100298.06;5062687;28;20028;-63
2023/10/03 14:25:30;;;;;;;8.30;3.40;;;;;;;23.31;61.63;100300.78;5064384;28;20525;-63
2023/10/03 14:27:55;;;;;;;7.53;3.80;;;;;;;23.28;62.34;100305.66;5064409;28;20063;-64
2023/10/03 14:30:21;;;;;;;5.88;3.55;;;;;;;23.23;62.96;100299.34;5063413;28;20563;-64
2023/10/03 14:32:49;;;;;;;6.30;3.40;;;;;;;23.21;62.76;100298.75;5044489;28;20047;-64
2023/10/03 14:35:15;;;;;;;6.47;3.30;;;;;;;23.19;63.16;100311.78;5061853;28;20036;-65
2023/10/03 14:37:41;;;;;;;6.63;3.20;;;;;;;23.06;65.78;100374.66;5062568;28;20045;-63
2023/10/03 14:40:15;;;;;;;7.70;3.85;;;;;;;22.63;79.16;100396.06;5060798;28;20033;-65
2023/10/03 14:42:42;;;;;;;6.05;3.13;;;;;;;22.11;88.88;100401.72;5058700;28;20024;-64
2023/10/03 14:45:08;;;;;;;5.85;3.55;;;;;;;21.74;95.67;100406.72;5063529;28;20036;-62
2023/10/03 14:47:33;;;;;;;4.30;3.30;;;;;;;21.35;100.00;100430.91;5061737;28;20037;-62
2023/10/03 14:49:59;;;;;;;6.03;3.22;;;;;;;21.03;100.00;100424.22;5063304;28;20032;-62
2023/10/03 14:52:25;;;;;;;8.07;4.50;;;;;;;20.44;100.00;100437.72;5062911;28;20118;-65
2023/10/03 14:54:51;;;;;;;5.70;2.88;;;;;;;20.37;100.00;100455.13;5060189;28;20037;-64
2023/10/03 14:57:16;;;;;;;6.38;3.13;;;;;;;20.19;100.00;100472.25;5063501;28;20395;-64
2023/10/03 14:59:41;;;;;;;7.88;3.15;;;;;;;19.95;100.00;100472.19;5061140;28;20083;-64
2023/10/03 15:02:08;;;;;;;6.10;3.70;;;;;;;19.72;100.00;100466.66;5059384;28;20471;-64
2023/10/03 15:04:34;;;;;;;5.75;3.05;;;;;;;19.48;100.00;100488.09;5072492;28;20236;-64
2023/10/03 15:07:01;;;;;;;6.15;3.13;;;;;;;19.39;100.00;100488.66;5072442;28;20444;-63
2023/10/03 15:09:29;;;;;;;4.25;2.63;;;;;;;19.39;100.00;100513.78;5072911;28;20111;-64
2023/10/03 15:11:55;;;;;;;5.20;3.00;;;;;;;19.22;100.00;100524.34;5072825;28;20041;-63
2023/10/03 15:14:22;;;;;;;4.40;2.20;;;;;;;19.15;100.00;100542.47;5068504;28;20093;-64
2023/10/03 15:16:49;;;;;;;6.72;2.72;;;;;;;19.14;100.00;100554.31;5052729;28;20057;-65
2023/10/03 15:19:16;;;;;;;5.95;2.45;;;;;;;19.00;100.00;100560.06;5052799;28;20072;-65
2023/10/03 15:21:42;;;;;;;3.00;1.80;;;;;;;18.96;100.00;100560.50;5052532;28;20025;-65
2023/10/03 15:24:11;;;;;;;3.92;1.88;;;;;;;18.87;100.00;100577.19;5052420;28;20122;-64
2023/10/03 15:26:37;;;;;;;2.20;1.30;;;;;;;18.73;100.00;100573.78;5052610;28;20399;-64
2023/10/03 15:29:02;;;;;;;2.92;1.30;;;;;;;18.77;100.00;100591.16;5052660;28;20036;-64
2023/10/03 15:31:28;;;;;;;3.50;1.40;;;;;;;18.62;100.00;100609.50;5052405;28;20040;-65
2023/10/03 15:33:54;;;;;;;2.72;1.30;;;;;;;18.49;100.00;100623.91;5052354;28;20045;-65
2023/10/03 15:36:19;;;;;;;2.03;1.10;;;;;;;18.50;100.00;100627.44;5052390;28;20037;-64
2023/10/03 15:38:46;;;;;;;1.20;0.80;;;;;;;18.31;100.00;100637.25;5052456;28;20040;-64
2023/10/03 15:41:14;;;;;;;1.58;1.00;;;;;;;18.31;100.00;100634.56;5052354;28;20403;-63
2023/10/03 15:43:40;;;;;;;1.77;1.05;;;;;;;18.31;100.00;100627.31;5052084;28;20029;-63
2023/10/03 15:46:06;;;;;;;1.67;1.03;;;;;;;18.25;100.00;100638.13;5054842;28;20080;-64